createdAt,value
2023-04-08T00:01:24.843Z,3.21
2023-04-08T00:06:28.421Z,3.19
2023-04-08T00:11:33.654Z,3.11
2023-04-08T00:16:37.143Z,3.15
2023-04-08T00:21:40.801Z,3.16
2023-04-08T00:26:45.753Z,3.24
2023-04-08T00:31:48.964Z,3.14
2023-04-08T00:36:52.410Z,3.08
2023-04-08T00:41:57.794Z,2.94
2023-04-08T00:47:01.447Z,3.01
2023-04-08T00:52:04.952Z,3.07
2023-04-08T00:57:10.016Z,2.90
2023-04-08T01:02:20.492Z,2.97
2023-04-08T01:07:29.072Z,2.80
2023-04-08T01:12:38.569Z,2.66
2023-04-08T01:17:43.486Z,2.56
2023-04-08T01:22:54.967Z,2.43
2023-04-08T01:28:01.515Z,2.30
2023-04-08T01:33:06.964Z,2.17
2023-04-08T01:38:12.586Z,2.13
2023-04-08T01:43:19.348Z,2.09
2023-04-08T01:48:23.586Z,2.04
2023-04-08T01:53:27.136Z,1.96
2023-04-08T01:58:38.681Z,1.98
2023-04-08T02:03:45.801Z,1.88
2023-04-08T02:08:49.559Z,1.72
2023-04-08T02:13:55.558Z,1.76
2023-04-08T02:19:04.912Z,1.62
2023-04-08T02:24:11.650Z,1.72
2023-04-08T02:29:17.713Z,1.68
2023-04-08T02:34:23.270Z,1.66
2023-04-08T02:39:33.380Z,1.64
2023-04-08T02:44:38.364Z,1.55
2023-04-08T02:49:41.684Z,1.48
2023-04-08T02:54:45.093Z,1.45
2023-04-08T02:59:49.941Z,1.49
2023-04-08T03:04:53.537Z,1.44
2023-04-08T03:09:57.104Z,1.50
2023-04-08T03:15:03.694Z,1.61
2023-04-08T03:20:08.548Z,1.75
2023-04-08T03:25:12.020Z,1.85
2023-04-08T03:30:18.318Z,1.93
2023-04-08T03:35:21.937Z,2.02
2023-04-08T03:40:25.680Z,2.32
2023-04-08T03:45:30.525Z,2.44
2023-04-08T03:50:34.153Z,2.57
2023-04-08T03:55:37.611Z,2.60
2023-04-08T04:00:42.450Z,2.77
2023-04-08T04:05:45.891Z,3.09
2023-04-08T04:10:49.338Z,3.39
2023-04-08T04:15:54.126Z,4.04
2023-04-08T04:20:57.600Z,11.54
2023-04-08T04:26:01.414Z,15.50
2023-04-08T04:31:06.450Z,17.50
2023-04-08T04:36:10.037Z,14.60
2023-04-08T04:41:13.557Z,10.48
2023-04-08T04:46:18.529Z,8.71
2023-04-08T04:51:22.001Z,7.45
2023-04-08T04:56:26.625Z,7.00
2023-04-08T05:01:31.737Z,12.28
2023-04-08T05:06:35.487Z,14.82
2023-04-08T05:11:39.577Z,18.55
2023-04-08T05:16:44.679Z,20.88
2023-04-08T05:21:48.118Z,21.30
2023-04-08T05:26:53.463Z,22.51
2023-04-08T05:31:58.380Z,26.71
2023-04-08T05:37:01.914Z,29.01
2023-04-08T05:42:05.765Z,30.43
2023-04-08T05:47:10.691Z,31.14
2023-04-08T05:52:14.259Z,30.71
2023-04-08T05:57:18.049Z,32.05
2023-04-08T06:02:23.116Z,33.97
2023-04-08T06:07:26.670Z,33.04
2023-04-08T06:12:30.233Z,34.02
2023-04-08T06:17:37.514Z,34.43
2023-04-08T06:22:41.219Z,33.54
2023-04-08T06:27:44.638Z,33.71
2023-04-08T06:32:49.572Z,34.14
2023-04-08T06:37:52.992Z,34.34
2023-04-08T06:42:56.629Z,34.50
2023-04-08T06:48:01.684Z,35.61
2023-04-08T06:53:05.204Z,33.61
2023-04-08T06:58:08.713Z,32.62
2023-04-08T07:03:13.706Z,30.57
2023-04-08T07:08:18.004Z,29.19
2023-04-08T07:13:23.772Z,28.59
2023-04-08T07:18:28.668Z,29.96
2023-04-08T07:23:32.127Z,32.96
2023-04-08T07:28:35.610Z,31.21
2023-04-08T07:33:40.525Z,32.01
2023-04-08T07:38:43.937Z,33.32
2023-04-08T07:43:47.537Z,33.15
2023-04-08T07:48:53.148Z,31.60
2023-04-08T07:53:57.204Z,31.65
2023-04-08T07:59:00.668Z,32.26
2023-04-08T08:04:06.004Z,32.04
2023-04-08T08:09:09.580Z,31.74
2023-04-08T08:14:14.042Z,32.03
2023-04-08T08:19:18.901Z,31.69
2023-04-08T08:24:22.726Z,29.53
2023-04-08T08:29:26.484Z,27.27
2023-04-08T08:34:31.909Z,27.17
2023-04-08T08:39:35.613Z,26.15
2023-04-08T08:44:38.752Z,22.65
2023-04-08T08:49:44.334Z,22.21
2023-04-08T08:54:47.788Z,20.75
2023-04-08T08:59:51.475Z,21.19
2023-04-08T09:05:01.369Z,20.47
2023-04-08T09:10:07.368Z,19.50
2023-04-08T09:15:11.911Z,18.60
2023-04-08T09:20:17.042Z,18.12
2023-04-08T09:25:27.988Z,18.08
2023-04-08T09:30:33.891Z,16.38
2023-04-08T09:35:38.943Z,16.26
2023-04-08T09:40:44.534Z,16.74
2023-04-08T09:45:48.997Z,16.91
2023-04-08T09:50:54.035Z,16.02
2023-04-08T09:55:59.341Z,16.16
2023-04-08T10:01:03.952Z,16.05
2023-04-08T10:06:10.561Z,15.65
2023-04-08T10:11:15.971Z,15.41
2023-04-08T10:16:24.844Z,14.90
2023-04-08T10:21:42.684Z,14.62
2023-04-08T10:26:48.981Z,15.06
2023-04-08T10:31:53.054Z,14.93
2023-04-08T10:37:02.275Z,14.65
2023-04-08T10:42:09.733Z,14.85
2023-04-08T10:47:13.793Z,14.80
2023-04-08T10:52:20.136Z,14.85
2023-04-08T10:57:27.165Z,14.93
2023-04-08T11:02:34.994Z,14.99
2023-04-08T11:07:43.093Z,14.72
2023-04-08T11:12:47.102Z,15.19
2023-04-08T11:17:51.411Z,14.42
2023-04-08T11:22:56.629Z,14.50
2023-04-08T11:28:00.425Z,14.65
2023-04-08T11:33:04.078Z,14.54
2023-04-08T11:38:10.174Z,14.57
2023-04-08T11:43:15.542Z,14.35
2023-04-08T11:48:19.333Z,14.55
2023-04-08T11:53:27.195Z,14.00
2023-04-08T11:58:30.960Z,13.84
2023-04-08T12:03:34.564Z,14.39
2023-04-08T12:08:39.552Z,14.12
2023-04-08T12:13:42.982Z,13.92
2023-04-08T12:18:46.825Z,13.78
2023-04-08T12:23:52.502Z,13.85
2023-04-08T12:28:56.423Z,14.15
2023-04-08T12:33:59.953Z,14.49
2023-04-08T12:39:05.223Z,14.75
2023-04-08T12:44:08.632Z,14.49
2023-04-08T12:49:12.301Z,14.39
2023-04-08T12:54:17.326Z,14.52
2023-04-08T12:59:20.736Z,14.60
2023-04-08T13:04:24.176Z,14.26
2023-04-08T13:09:30.844Z,14.46
2023-04-08T13:14:34.348Z,14.52
2023-04-08T13:19:37.977Z,14.51
2023-04-08T13:24:43.144Z,14.67
2023-04-08T13:29:46.648Z,14.68
2023-04-08T13:34:50.113Z,14.92
2023-04-08T13:39:54.969Z,14.66
2023-04-08T13:44:58.623Z,14.36
2023-04-08T13:50:02.090Z,14.17
2023-04-08T13:55:09.610Z,14.01
2023-04-08T14:00:14.129Z,13.89
2023-04-08T14:05:17.748Z,13.97
2023-04-08T14:10:22.752Z,13.99
2023-04-08T14:15:26.333Z,13.85
2023-04-08T14:20:30.007Z,13.97
2023-04-08T14:25:34.960Z,13.88
2023-04-08T14:30:39.152Z,13.96
2023-04-08T14:35:42.762Z,13.76
2023-04-08T14:40:47.630Z,13.63
2023-04-08T14:45:51.749Z,13.81
2023-04-08T14:50:55.317Z,14.00
2023-04-08T14:56:00.150Z,13.97
2023-04-08T15:01:03.691Z,14.00
2023-04-08T15:06:07.462Z,13.70
2023-04-08T15:11:12.345Z,13.65
2023-04-08T15:16:15.948Z,13.49
2023-04-08T15:21:19.574Z,13.26
2023-04-08T15:26:24.612Z,13.34
2023-04-08T15:31:28.076Z,13.40
2023-04-08T15:36:32.310Z,13.30
2023-04-08T15:41:37.173Z,13.27
2023-04-08T15:46:40.742Z,13.36
2023-04-08T15:51:44.897Z,13.30
2023-04-08T15:56:49.950Z,13.24
2023-04-08T16:01:53.567Z,13.10
2023-04-08T16:06:57.212Z,12.92
2023-04-08T16:12:02.038Z,12.80
2023-04-08T16:17:05.835Z,12.67
2023-04-08T16:22:09.314Z,12.45
2023-04-08T16:27:14.284Z,12.37
2023-04-08T16:32:17.905Z,12.38
2023-04-08T16:37:21.408Z,12.27
2023-04-08T16:42:26.358Z,12.16
2023-04-08T16:47:29.939Z,12.06
2023-04-08T16:52:33.460Z,11.95
2023-04-08T16:57:38.371Z,11.78
2023-04-08T17:02:41.689Z,11.66
2023-04-08T17:07:45.548Z,11.41
2023-04-08T17:12:50.517Z,11.27
2023-04-08T17:17:53.987Z,11.04
2023-04-08T17:22:57.466Z,10.93
2023-04-08T17:28:02.321Z,10.84
2023-04-08T17:33:05.593Z,10.70
2023-04-08T17:38:09.087Z,10.46
2023-04-08T17:43:14.038Z,10.26
2023-04-08T17:48:17.715Z,10.06
2023-04-08T17:53:21.134Z,9.83
2023-04-08T17:58:26.495Z,9.65
2023-04-08T18:03:30.125Z,9.46
2023-04-08T18:08:33.744Z,9.28
2023-04-08T18:13:38.635Z,9.18
2023-04-08T18:18:42.296Z,9.02
2023-04-08T18:23:47.181Z,8.89
2023-04-08T18:28:51.765Z,8.80
2023-04-08T18:33:55.165Z,8.59
2023-04-08T18:38:59.019Z,8.44
2023-04-08T18:44:04.264Z,8.30
2023-04-08T18:49:07.849Z,8.17
2023-04-08T18:54:11.270Z,8.03
2023-04-08T18:59:16.553Z,7.88
2023-04-08T19:04:20.076Z,7.74
2023-04-08T19:09:23.688Z,7.63
2023-04-08T19:14:28.529Z,7.46
2023-04-08T19:19:32.791Z,7.25
2023-04-08T19:24:36.823Z,7.18
2023-04-08T19:29:41.746Z,7.12
2023-04-08T19:34:45.155Z,6.98
2023-04-08T19:39:48.555Z,6.90
2023-04-08T19:44:53.381Z,6.82
2023-04-08T19:49:58.412Z,6.69
2023-04-08T19:55:02.536Z,6.65
2023-04-08T20:00:11.679Z,6.56
2023-04-08T20:05:17.505Z,6.46
2023-04-08T20:10:21.938Z,6.39
2023-04-08T20:15:26.881Z,6.32
2023-04-08T20:20:30.166Z,6.24
2023-04-08T20:25:33.705Z,6.08
2023-04-08T20:30:38.723Z,6.02
2023-04-08T20:35:41.923Z,5.88
2023-04-08T20:40:46.440Z,5.73
2023-04-08T20:45:51.249Z,5.71
2023-04-08T20:50:54.909Z,5.64
2023-04-08T20:55:58.483Z,5.52
2023-04-08T21:01:03.478Z,5.47
2023-04-08T21:06:06.741Z,5.48
2023-04-08T21:11:10.154Z,5.36
2023-04-08T21:16:15.095Z,5.32
2023-04-08T21:21:18.392Z,5.27
2023-04-08T21:26:22.390Z,5.16
2023-04-08T21:31:27.523Z,5.09
2023-04-08T21:36:31.577Z,5.07
2023-04-08T21:41:35.024Z,4.95
2023-04-08T21:46:39.981Z,4.88
2023-04-08T21:51:43.330Z,4.84
2023-04-08T21:56:46.758Z,4.65
2023-04-08T22:01:51.720Z,4.64
2023-04-08T22:06:55.253Z,4.63
2023-04-08T22:11:58.694Z,4.56
2023-04-08T22:17:04.648Z,4.57
2023-04-08T22:22:08.369Z,4.45
2023-04-08T22:27:11.843Z,4.38
2023-04-08T22:32:18.309Z,4.36
2023-04-08T22:37:22.005Z,4.24
2023-04-08T22:42:25.607Z,4.18
2023-04-08T22:47:30.515Z,4.23
2023-04-08T22:52:33.716Z,4.19
2023-04-08T22:57:37.111Z,4.11
2023-04-08T23:02:42.026Z,4.11
2023-04-08T23:07:45.254Z,4.04
2023-04-08T23:12:48.667Z,3.95
2023-04-08T23:17:53.665Z,3.91
2023-04-08T23:22:57.206Z,3.85
2023-04-08T23:28:01.768Z,3.80
2023-04-08T23:33:06.820Z,3.76
2023-04-08T23:38:10.134Z,3.63
2023-04-08T23:43:13.560Z,3.64
2023-04-08T23:48:18.452Z,3.64
2023-04-08T23:53:21.747Z,3.55
2023-04-08T23:58:25.214Z,3.49
